sensor_id;sensor_type;location;lat;lon;timestamp;temperature;humidity
16867;DHT22;8550;52.596;13.320;2023-07-24T00:01:29;19.20;99.90
16867;DHT22;8550;52.596;13.320;2023-07-24T00:06:31;19.30;99.90
16867;DHT22;8550;52.596;13.320;2023-07-24T00:11:34;19.30;99.90
16867;DHT22;8550;52.596;13.320;2023-07-24T00:16:37;19.30;99.90
16867;DHT22;8550;52.596;13.320;2023-07-24T00:21:39;19.30;99.90
16867;DHT22;8550;52.596;13.320;2023-07-24T00:26:42;19.40;99.90
16867;DHT22;8550;52.596;13.320;2023-07-24T00:31:44;19.60;99.90
16867;DHT22;8550;52.596;13.320;2023-07-24T00:36:46;19.60;99.90
16867;DHT22;8550;52.596;13.320;2023-07-24T00:41:49;19.70;99.90
16867;DHT22;8550;52.596;13.320;2023-07-24T00:46:51;19.60;99.90
16867;DHT22;8550;52.596;13.320;2023-07-24T00:51:53;19.70;99.90
16867;DHT22;8550;52.596;13.320;2023-07-24T00:56:57;19.70;99.90
16867;DHT22;8550;52.596;13.320;2023-07-24T01:01:59;19.70;99.90
16867;DHT22;8550;52.596;13.320;2023-07-24T01:07:01;19.60;99.90
16867;DHT22;8550;52.596;13.320;2023-07-24T01:12:10;19.50;99.90
16867;DHT22;8550;52.596;13.320;2023-07-24T01:17:16;19.40;99.90
16867;DHT22;8550;52.596;13.320;2023-07-24T01:22:25;19.40;99.90
16867;DHT22;8550;52.596;13.320;2023-07-24T01:27:32;19.40;99.90
16867;DHT22;8550;52.596;13.320;2023-07-24T01:32:34;19.30;99.90
16867;DHT22;8550;52.596;13.320;2023-07-24T01:37:36;19.40;99.90
16867;DHT22;8550;52.596;13.320;2023-07-24T01:42:41;19.40;99.90
16867;DHT22;8550;52.596;13.320;2023-07-24T01:47:43;19.40;99.90
16867;DHT22;8550;52.596;13.320;2023-07-24T01:52:45;19.50;99.90
16867;DHT22;8550;52.596;13.320;2023-07-24T01:57:48;19.50;99.90
16867;DHT22;8550;52.596;13.320;2023-07-24T02:02:50;19.50;99.90
16867;DHT22;8550;52.596;13.320;2023-07-24T02:07:52;19.50;99.90
16867;DHT22;8550;52.596;13.320;2023-07-24T02:12:55;19.50;99.90
16867;DHT22;8550;52.596;13.320;2023-07-24T02:17:57;19.60;99.90
16867;DHT22;8550;52.596;13.320;2023-07-24T02:22:59;19.60;99.90
16867;DHT22;8550;52.596;13.320;2023-07-24T02:28:03;19.70;99.90
16867;DHT22;8550;52.596;13.320;2023-07-24T02:33:05;19.60;99.90
16867;DHT22;8550;52.596;13.320;2023-07-24T02:38:07;19.70;99.90
16867;DHT22;8550;52.596;13.320;2023-07-24T02:43:10;19.70;99.90
16867;DHT22;8550;52.596;13.320;2023-07-24T02:48:12;19.70;99.90
16867;DHT22;8550;52.596;13.320;2023-07-24T02:53:14;19.70;99.90
16867;DHT22;8550;52.596;13.320;2023-07-24T02:58:18;19.70;99.90
16867;DHT22;8550;52.596;13.320;2023-07-24T03:03:19;19.70;99.90
16867;DHT22;8550;52.596;13.320;2023-07-24T03:08:21;19.70;99.90
16867;DHT22;8550;52.596;13.320;2023-07-24T03:13:25;19.70;99.90
16867;DHT22;8550;52.596;13.320;2023-07-24T03:18:27;19.50;99.90
16867;DHT22;8550;52.596;13.320;2023-07-24T03:23:28;19.30;99.90
16867;DHT22;8550;52.596;13.320;2023-07-24T03:28:32;19.30;99.90
16867;DHT22;8550;52.596;13.320;2023-07-24T03:33:34;19.40;99.90
16867;DHT22;8550;52.596;13.320;2023-07-24T03:38:36;19.40;99.90
16867;DHT22;8550;52.596;13.320;2023-07-24T03:43:39;19.40;99.90
16867;DHT22;8550;52.596;13.320;2023-07-24T03:48:41;19.40;99.90
16867;DHT22;8550;52.596;13.320;2023-07-24T03:53:43;19.30;99.90
16867;DHT22;8550;52.596;13.320;2023-07-24T03:58:46;19.00;99.90
16867;DHT22;8550;52.596;13.320;2023-07-24T04:03:48;18.90;99.90
16867;DHT22;8550;52.596;13.320;2023-07-24T04:08:50;18.90;99.90
16867;DHT22;8550;52.596;13.320;2023-07-24T04:13:53;19.00;99.90
16867;DHT22;8550;52.596;13.320;2023-07-24T04:18:55;19.00;99.90
16867;DHT22;8550;52.596;13.320;2023-07-24T04:23:57;19.00;99.90
16867;DHT22;8550;52.596;13.320;2023-07-24T04:29:00;19.00;99.90
16867;DHT22;8550;52.596;13.320;2023-07-24T04:34:03;19.20;99.90
16867;DHT22;8550;52.596;13.320;2023-07-24T04:39:04;19.40;99.90
16867;DHT22;8550;52.596;13.320;2023-07-24T04:44:08;19.50;99.90
16867;DHT22;8550;52.596;13.320;2023-07-24T04:49:10;19.50;99.90
16867;DHT22;8550;52.596;13.320;2023-07-24T04:54:11;19.50;99.90
16867;DHT22;8550;52.596;13.320;2023-07-24T04:59:15;19.70;99.90
16867;DHT22;8550;52.596;13.320;2023-07-24T05:04:17;19.80;99.90
16867;DHT22;8550;52.596;13.320;2023-07-24T05:09:19;19.80;99.90
16867;DHT22;8550;52.596;13.320;2023-07-24T05:14:22;19.90;99.90
16867;DHT22;8550;52.596;13.320;2023-07-24T05:19:24;20.00;99.90
16867;DHT22;8550;52.596;13.320;2023-07-24T05:24:26;20.20;99.90
16867;DHT22;8550;52.596;13.320;2023-07-24T05:29:29;20.60;99.90
16867;DHT22;8550;52.596;13.320;2023-07-24T05:34:31;21.00;99.90
16867;DHT22;8550;52.596;13.320;2023-07-24T05:39:33;21.30;99.90
16867;DHT22;8550;52.596;13.320;2023-07-24T05:44:36;21.30;99.90
16867;DHT22;8550;52.596;13.320;2023-07-24T05:49:38;21.10;99.90
16867;DHT22;8550;52.596;13.320;2023-07-24T05:54:40;20.90;99.90
16867;DHT22;8550;52.596;13.320;2023-07-24T05:59:43;21.00;99.90
16867;DHT22;8550;52.596;13.320;2023-07-24T06:04:45;21.30;99.90
16867;DHT22;8550;52.596;13.320;2023-07-24T06:09:47;21.50;99.90
16867;DHT22;8550;52.596;13.320;2023-07-24T06:14:50;21.80;99.90
16867;DHT22;8550;52.596;13.320;2023-07-24T06:19:52;22.00;99.90
16867;DHT22;8550;52.596;13.320;2023-07-24T06:24:55;22.00;99.90
16867;DHT22;8550;52.596;13.320;2023-07-24T06:29:58;22.00;99.90
16867;DHT22;8550;52.596;13.320;2023-07-24T06:35:00;22.10;99.90
16867;DHT22;8550;52.596;13.320;2023-07-24T06:40:03;22.20;99.90
16867;DHT22;8550;52.596;13.320;2023-07-24T06:45:07;22.30;99.90
16867;DHT22;8550;52.596;13.320;2023-07-24T06:50:10;22.30;99.90
16867;DHT22;8550;52.596;13.320;2023-07-24T06:55:12;22.40;99.90
16867;DHT22;8550;52.596;13.320;2023-07-24T07:00:16;22.50;99.90
16867;DHT22;8550;52.596;13.320;2023-07-24T07:05:18;22.60;99.90
16867;DHT22;8550;52.596;13.320;2023-07-24T07:10:20;22.50;99.90
16867;DHT22;8550;52.596;13.320;2023-07-24T07:15:24;22.60;99.90
16867;DHT22;8550;52.596;13.320;2023-07-24T07:20:26;22.80;99.90
16867;DHT22;8550;52.596;13.320;2023-07-24T07:25:28;22.90;99.90
16867;DHT22;8550;52.596;13.320;2023-07-24T07:30:31;23.10;99.90
16867;DHT22;8550;52.596;13.320;2023-07-24T07:35:33;23.30;99.90
16867;DHT22;8550;52.596;13.320;2023-07-24T07:40:37;23.50;99.90
16867;DHT22;8550;52.596;13.320;2023-07-24T07:45:41;23.70;99.90
16867;DHT22;8550;52.596;13.320;2023-07-24T07:50:42;23.80;99.90
16867;DHT22;8550;52.596;13.320;2023-07-24T07:55:44;23.90;99.90
16867;DHT22;8550;52.596;13.320;2023-07-24T08:00:48;23.90;99.90
16867;DHT22;8550;52.596;13.320;2023-07-24T08:05:49;24.20;99.90
16867;DHT22;8550;52.596;13.320;2023-07-24T08:10:51;24.40;99.90
16867;DHT22;8550;52.596;13.320;2023-07-24T08:15:55;24.90;99.90
16867;DHT22;8550;52.596;13.320;2023-07-24T08:20:56;25.30;99.90
16867;DHT22;8550;52.596;13.320;2023-07-24T08:25:58;25.20;99.90
16867;DHT22;8550;52.596;13.320;2023-07-24T08:31:02;25.10;99.50
16867;DHT22;8550;52.596;13.320;2023-07-24T08:36:05;25.10;99.90
16867;DHT22;8550;52.596;13.320;2023-07-24T08:41:08;25.40;98.80
16867;DHT22;8550;52.596;13.320;2023-07-24T08:46:12;25.20;98.80
16867;DHT22;8550;52.596;13.320;2023-07-24T08:51:15;25.30;98.50
16867;DHT22;8550;52.596;13.320;2023-07-24T08:56:19;25.30;97.90
16867;DHT22;8550;52.596;13.320;2023-07-24T09:01:22;25.40;97.90
16867;DHT22;8550;52.596;13.320;2023-07-24T09:06:26;25.30;98.60
16867;DHT22;8550;52.596;13.320;2023-07-24T09:11:28;25.30;98.60
16867;DHT22;8550;52.596;13.320;2023-07-24T09:16:31;25.50;98.00
16867;DHT22;8550;52.596;13.320;2023-07-24T09:21:33;25.70;97.70
16867;DHT22;8550;52.596;13.320;2023-07-24T09:26:35;26.10;97.20
16867;DHT22;8550;52.596;13.320;2023-07-24T09:31:49;26.40;96.80
16867;DHT22;8550;52.596;13.320;2023-07-24T09:36:51;26.50;96.00
16867;DHT22;8550;52.596;13.320;2023-07-24T09:41:53;26.40;96.90
16867;DHT22;8550;52.596;13.320;2023-07-24T09:47:06;26.90;96.40
16867;DHT22;8550;52.596;13.320;2023-07-24T09:52:09;27.00;95.40
16867;DHT22;8550;52.596;13.320;2023-07-24T09:57:13;27.40;94.50
16867;DHT22;8550;52.596;13.320;2023-07-24T10:02:17;26.90;94.90
16867;DHT22;8550;52.596;13.320;2023-07-24T10:07:20;27.20;95.10
16867;DHT22;8550;52.596;13.320;2023-07-24T10:12:23;27.10;94.40
16867;DHT22;8550;52.596;13.320;2023-07-24T10:17:36;27.40;94.50
16867;DHT22;8550;52.596;13.320;2023-07-24T10:22:41;27.40;93.40
16867;DHT22;8550;52.596;13.320;2023-07-24T10:27:44;27.60;92.10
16867;DHT22;8550;52.596;13.320;2023-07-24T10:32:48;27.40;91.70
16867;DHT22;8550;52.596;13.320;2023-07-24T10:37:59;27.80;92.20
16867;DHT22;8550;52.596;13.320;2023-07-24T10:43:04;27.90;90.00
16867;DHT22;8550;52.596;13.320;2023-07-24T10:48:08;28.30;90.20
16867;DHT22;8550;52.596;13.320;2023-07-24T10:53:14;28.20;86.90
16867;DHT22;8550;52.596;13.320;2023-07-24T10:58:17;27.90;86.00
16867;DHT22;8550;52.596;13.320;2023-07-24T11:03:21;28.00;85.90
16867;DHT22;8550;52.596;13.320;2023-07-24T11:08:23;28.60;84.90
16867;DHT22;8550;52.596;13.320;2023-07-24T11:13:26;29.10;83.40
16867;DHT22;8550;52.596;13.320;2023-07-24T11:18:30;29.20;77.60
16867;DHT22;8550;52.596;13.320;2023-07-24T11:23:32;28.50;79.80
16867;DHT22;8550;52.596;13.320;2023-07-24T11:28:39;28.00;82.40
16867;DHT22;8550;52.596;13.320;2023-07-24T11:33:43;28.50;79.00
16867;DHT22;8550;52.596;13.320;2023-07-24T11:38:45;28.20;79.60
16867;DHT22;8550;52.596;13.320;2023-07-24T11:43:48;28.30;79.00
16867;DHT22;8550;52.596;13.320;2023-07-24T11:48:52;28.90;77.60
16867;DHT22;8550;52.596;13.320;2023-07-24T11:54:05;28.60;76.50
16867;DHT22;8550;52.596;13.320;2023-07-24T11:59:12;27.70;80.80
16867;DHT22;8550;52.596;13.320;2023-07-24T12:04:15;27.00;83.30
16867;DHT22;8550;52.596;13.320;2023-07-24T12:09:18;26.50;85.30
16867;DHT22;8550;52.596;13.320;2023-07-24T12:14:20;25.50;93.80
16867;DHT22;8550;52.596;13.320;2023-07-24T12:19:23;23.20;99.90
16867;DHT22;8550;52.596;13.320;2023-07-24T12:24:25;22.20;99.90
16867;DHT22;8550;52.596;13.320;2023-07-24T12:29:27;21.40;99.90
16867;DHT22;8550;52.596;13.320;2023-07-24T12:34:30;21.10;99.90
16867;DHT22;8550;52.596;13.320;2023-07-24T12:39:32;21.30;99.90
16867;DHT22;8550;52.596;13.320;2023-07-24T12:44:34;23.10;99.90
16867;DHT22;8550;52.596;13.320;2023-07-24T12:49:38;25.40;99.90
16867;DHT22;8550;52.596;13.320;2023-07-24T12:54:41;26.40;99.90
16867;DHT22;8550;52.596;13.320;2023-07-24T12:59:43;27.10;99.90
16867;DHT22;8550;52.596;13.320;2023-07-24T13:04:46;26.10;99.90
16867;DHT22;8550;52.596;13.320;2023-07-24T13:09:48;27.20;99.90
16867;DHT22;8550;52.596;13.320;2023-07-24T13:14:49;28.00;99.90
16867;DHT22;8550;52.596;13.320;2023-07-24T13:19:53;29.80;98.70
16867;DHT22;8550;52.596;13.320;2023-07-24T13:24:55;30.70;95.30
16867;DHT22;8550;52.596;13.320;2023-07-24T13:29:56;31.60;93.20
16867;DHT22;8550;52.596;13.320;2023-07-24T13:35:00;31.00;92.90
16867;DHT22;8550;52.596;13.320;2023-07-24T13:40:02;30.80;92.90
16867;DHT22;8550;52.596;13.320;2023-07-24T13:45:04;30.60;93.80
16867;DHT22;8550;52.596;13.320;2023-07-24T13:50:08;30.80;92.50
16867;DHT22;8550;52.596;13.320;2023-07-24T13:55:10;30.10;94.20
16867;DHT22;8550;52.596;13.320;2023-07-24T14:00:14;28.10;96.10
16867;DHT22;8550;52.596;13.320;2023-07-24T14:05:17;27.20;99.20
16867;DHT22;8550;52.596;13.320;2023-07-24T14:10:19;27.70;98.30
16867;DHT22;8550;52.596;13.320;2023-07-24T14:15:21;28.50;96.50
16867;DHT22;8550;52.596;13.320;2023-07-24T14:20:25;28.40;95.40
16867;DHT22;8550;52.596;13.320;2023-07-24T14:25:27;28.00;96.70
16867;DHT22;8550;52.596;13.320;2023-07-24T14:30:29;27.60;97.20
16867;DHT22;8550;52.596;13.320;2023-07-24T14:35:32;27.70;97.80
16867;DHT22;8550;52.596;13.320;2023-07-24T14:40:34;27.80;97.20
16867;DHT22;8550;52.596;13.320;2023-07-24T14:45:36;27.40;97.70
16867;DHT22;8550;52.596;13.320;2023-07-24T14:50:40;27.20;98.30
16867;DHT22;8550;52.596;13.320;2023-07-24T14:55:42;27.20;98.30
16867;DHT22;8550;52.596;13.320;2023-07-24T15:00:44;27.10;98.70
16867;DHT22;8550;52.596;13.320;2023-07-24T15:05:47;26.80;98.30
16867;DHT22;8550;52.596;13.320;2023-07-24T15:10:49;26.60;98.90
16867;DHT22;8550;52.596;13.320;2023-07-24T15:15:51;26.80;98.50
16867;DHT22;8550;52.596;13.320;2023-07-24T15:20:54;26.70;99.90
16867;DHT22;8550;52.596;13.320;2023-07-24T15:25:56;26.40;98.60
16867;DHT22;8550;52.596;13.320;2023-07-24T15:30:58;26.20;98.40
16867;DHT22;8550;52.596;13.320;2023-07-24T15:36:02;26.10;98.30
16867;DHT22;8550;52.596;13.320;2023-07-24T15:41:03;25.90;98.60
16867;DHT22;8550;52.596;13.320;2023-07-24T15:46:05;26.40;98.00
16867;DHT22;8550;52.596;13.320;2023-07-24T15:51:09;27.00;96.40
16867;DHT22;8550;52.596;13.320;2023-07-24T15:56:11;27.60;95.20
16867;DHT22;8550;52.596;13.320;2023-07-24T16:01:12;27.70;94.40
16867;DHT22;8550;52.596;13.320;2023-07-24T16:06:16;27.40;95.20
16867;DHT22;8550;52.596;13.320;2023-07-24T16:11:18;27.00;95.00
16867;DHT22;8550;52.596;13.320;2023-07-24T16:16:20;26.90;96.30
16867;DHT22;8550;52.596;13.320;2023-07-24T16:21:23;26.90;96.30
16867;DHT22;8550;52.596;13.320;2023-07-24T16:26:27;27.00;96.20
16867;DHT22;8550;52.596;13.320;2023-07-24T16:31:29;27.80;95.30
16867;DHT22;8550;52.596;13.320;2023-07-24T16:36:32;27.90;94.50
16867;DHT22;8550;52.596;13.320;2023-07-24T16:41:35;27.40;95.00
16867;DHT22;8550;52.596;13.320;2023-07-24T16:46:37;25.30;98.70
16867;DHT22;8550;52.596;13.320;2023-07-24T16:51:40;23.70;99.90
16867;DHT22;8550;52.596;13.320;2023-07-24T16:56:42;22.80;99.90
16867;DHT22;8550;52.596;13.320;2023-07-24T17:01:44;22.10;99.90
16867;DHT22;8550;52.596;13.320;2023-07-24T17:06:47;21.90;99.90
16867;DHT22;8550;52.596;13.320;2023-07-24T17:11:49;21.80;99.90
16867;DHT22;8550;52.596;13.320;2023-07-24T17:16:51;21.70;99.90
16867;DHT22;8550;52.596;13.320;2023-07-24T17:21:54;21.60;99.90
16867;DHT22;8550;52.596;13.320;2023-07-24T17:26:56;21.40;99.90
16867;DHT22;8550;52.596;13.320;2023-07-24T17:31:59;20.40;99.90
16867;DHT22;8550;52.596;13.320;2023-07-24T17:37:09;18.40;99.90
16867;DHT22;8550;52.596;13.320;2023-07-24T17:42:11;17.60;99.90
16867;DHT22;8550;52.596;13.320;2023-07-24T17:47:14;17.20;99.90
16867;DHT22;8550;52.596;13.320;2023-07-24T17:57:57;17.50;99.90
16867;DHT22;8550;52.596;13.320;2023-07-24T18:03:02;17.60;99.90
16867;DHT22;8550;52.596;13.320;2023-07-24T18:08:35;17.80;99.90
16867;DHT22;8550;52.596;13.320;2023-07-24T18:13:38;18.20;99.90
16867;DHT22;8550;52.596;13.320;2023-07-24T18:18:48;18.20;99.90
16867;DHT22;8550;52.596;13.320;2023-07-24T18:23:51;18.10;99.90
16867;DHT22;8550;52.596;13.320;2023-07-24T18:28:53;17.90;99.90
16867;DHT22;8550;52.596;13.320;2023-07-24T18:33:56;18.20;99.90
16867;DHT22;8550;52.596;13.320;2023-07-24T18:38:59;18.30;99.90
16867;DHT22;8550;52.596;13.320;2023-07-24T18:44:01;18.20;99.90
16867;DHT22;8550;52.596;13.320;2023-07-24T18:49:03;18.00;99.90
16867;DHT22;8550;52.596;13.320;2023-07-24T18:54:06;18.00;99.90
16867;DHT22;8550;52.596;13.320;2023-07-24T18:59:08;18.00;99.90
16867;DHT22;8550;52.596;13.320;2023-07-24T19:04:10;18.10;99.90
16867;DHT22;8550;52.596;13.320;2023-07-24T19:09:14;18.10;99.90
16867;DHT22;8550;52.596;13.320;2023-07-24T19:14:16;18.00;99.90
16867;DHT22;8550;52.596;13.320;2023-07-24T19:19:18;18.20;99.90
16867;DHT22;8550;52.596;13.320;2023-07-24T19:24:22;18.10;99.90
16867;DHT22;8550;52.596;13.320;2023-07-24T19:29:24;18.10;99.90
16867;DHT22;8550;52.596;13.320;2023-07-24T19:34:26;17.90;99.90
16867;DHT22;8550;52.596;13.320;2023-07-24T19:39:31;17.90;99.90
16867;DHT22;8550;52.596;13.320;2023-07-24T19:44:33;17.90;99.90
16867;DHT22;8550;52.596;13.320;2023-07-24T19:49:38;17.90;99.90
16867;DHT22;8550;52.596;13.320;2023-07-24T19:54:42;17.70;99.90
16867;DHT22;8550;52.596;13.320;2023-07-24T19:59:44;17.70;99.90
16867;DHT22;8550;52.596;13.320;2023-07-24T20:04:46;17.60;99.90
16867;DHT22;8550;52.596;13.320;2023-07-24T20:09:49;17.60;99.90
16867;DHT22;8550;52.596;13.320;2023-07-24T20:14:53;17.60;99.90
16867;DHT22;8550;52.596;13.320;2023-07-24T20:19:55;17.50;99.90
16867;DHT22;8550;52.596;13.320;2023-07-24T20:24:58;17.50;99.90
16867;DHT22;8550;52.596;13.320;2023-07-24T20:30:00;17.50;99.90
16867;DHT22;8550;52.596;13.320;2023-07-24T20:35:02;17.40;99.90
16867;DHT22;8550;52.596;13.320;2023-07-24T20:40:07;17.40;99.90
16867;DHT22;8550;52.596;13.320;2023-07-24T20:45:09;17.40;99.90
16867;DHT22;8550;52.596;13.320;2023-07-24T20:50:11;17.30;99.90
16867;DHT22;8550;52.596;13.320;2023-07-24T20:55:14;17.20;99.90
16867;DHT22;8550;52.596;13.320;2023-07-24T21:00:17;17.20;99.90
16867;DHT22;8550;52.596;13.320;2023-07-24T21:05:19;17.20;99.90
16867;DHT22;8550;52.596;13.320;2023-07-24T21:10:23;17.20;99.90
16867;DHT22;8550;52.596;13.320;2023-07-24T21:15:25;17.10;99.90
16867;DHT22;8550;52.596;13.320;2023-07-24T21:20:27;17.20;99.90
16867;DHT22;8550;52.596;13.320;2023-07-24T21:25:30;17.20;99.90
16867;DHT22;8550;52.596;13.320;2023-07-24T21:30:32;17.20;99.90
16867;DHT22;8550;52.596;13.320;2023-07-24T21:35:34;17.30;99.90
16867;DHT22;8550;52.596;13.320;2023-07-24T21:40:37;17.20;99.90
16867;DHT22;8550;52.596;13.320;2023-07-24T21:45:41;17.10;99.90
16867;DHT22;8550;52.596;13.320;2023-07-24T21:50:46;16.90;99.90
16867;DHT22;8550;52.596;13.320;2023-07-24T21:55:50;16.90;99.90
16867;DHT22;8550;52.596;13.320;2023-07-24T22:00:52;16.80;99.90
16867;DHT22;8550;52.596;13.320;2023-07-24T22:05:54;16.70;99.90
16867;DHT22;8550;52.596;13.320;2023-07-24T22:10:57;16.70;99.90
16867;DHT22;8550;52.596;13.320;2023-07-24T22:15:59;16.60;99.90
16867;DHT22;8550;52.596;13.320;2023-07-24T22:21:01;16.60;99.90
16867;DHT22;8550;52.596;13.320;2023-07-24T22:26:05;16.50;99.90
16867;DHT22;8550;52.596;13.320;2023-07-24T22:31:07;16.50;99.90
16867;DHT22;8550;52.596;13.320;2023-07-24T22:36:09;16.50;99.90
16867;DHT22;8550;52.596;13.320;2023-07-24T22:41:13;16.50;99.90
16867;DHT22;8550;52.596;13.320;2023-07-24T22:46:15;16.40;99.90
16867;DHT22;8550;52.596;13.320;2023-07-24T22:51:17;16.30;99.90
16867;DHT22;8550;52.596;13.320;2023-07-24T22:56:20;16.20;99.90
16867;DHT22;8550;52.596;13.320;2023-07-24T23:01:25;16.20;99.90
16867;DHT22;8550;52.596;13.320;2023-07-24T23:06:27;16.20;99.90
16867;DHT22;8550;52.596;13.320;2023-07-24T23:11:49;16.20;99.90
16867;DHT22;8550;52.596;13.320;2023-07-24T23:17:08;16.20;99.90
16867;DHT22;8550;52.596;13.320;2023-07-24T23:22:10;16.20;99.90
16867;DHT22;8550;52.596;13.320;2023-07-24T23:27:13;16.20;99.90
16867;DHT22;8550;52.596;13.320;2023-07-24T23:32:15;16.10;99.90
16867;DHT22;8550;52.596;13.320;2023-07-24T23:37:17;16.10;99.90
16867;DHT22;8550;52.596;13.320;2023-07-24T23:42:20;16.10;99.90
16867;DHT22;8550;52.596;13.320;2023-07-24T23:47:22;16.10;99.90
16867;DHT22;8550;52.596;13.320;2023-07-24T23:52:24;16.00;99.90
16867;DHT22;8550;52.596;13.320;2023-07-24T23:57:27;16.00;99.90
